Flight Track Log - Related Links

Times and Time Zones

All times are in EDT time to prevent confusion due to time zone crossing. See the JZA8279 flight status page for this flight to view local times or setup timezone preferences in your user account.

Time Position Orientation Groundspeed Altitude Reporting Facility
EDT Latitude Longitude Course Direction KTS MPH feet Rate Location/Type
Mon 01:42:14 PM 54.2667 -130.4667 135° Southeast 140 161 1,100  Level Vancouver Center
Mon 01:45:00 PM 54.1830 -130.2826 130° Southeast  Level FlightAware Approximate
Mon 01:46:14 PM 54.1333 -130.2333 130° Southeast 200 230 5,700  Level Vancouver Center
Mon 01:47:00 PM 53.9480 -129.8892 135° Southeast  Level FlightAware Approximate
Mon 01:47:14 PM 54.0833 -130.1667 142° Southeast 190 219 6,800  Level Vancouver Center
Mon 01:49:00 PM 54.0024 -129.9711 133° Southeast  Level FlightAware Approximate
Mon 01:50:14 PM 53.9667 -129.9500 135° Southeast 210 242 10,200  Level Vancouver Center
Mon 01:52:00 PM 53.8775 -129.7716 130° Southeast  Level FlightAware Approximate
Mon 01:52:14 PM 53.8833 -129.8000 130° Southeast 220 253 12,300  Level Vancouver Center
Mon 01:53:14 PM 53.8333 -129.7333 142° Southeast 220 253 13,300 967 Climbing Vancouver Center
Mon 01:55:14 PM 53.7500 -129.5833 133° Southeast 220 253 15,200 900 Climbing Vancouver Center
Mon 01:56:00 PM 53.6139 -129.3228 135° Southeast  Level FlightAware Approximate
Mon 01:56:14 PM 53.7000 -129.5000 135° Southeast 230 265 16,000  Level Vancouver Center
Mon 01:57:14 PM 53.6500 -129.4333 142° Southeast 230 265 16,900 800 Climbing Vancouver Center
Mon 01:58:14 PM 53.6000 -129.3333 130° Southeast 230 265 17,600 650 Climbing Vancouver Center
Mon 01:59:14 PM 53.5500 -129.2833 149° Southeast 240 276 18,200 700 Climbing Vancouver Center
Mon 02:00:14 PM 53.5167 -129.1833 119° Southeast 240 276 19,000 750 Climbing Vancouver Center
Mon 02:01:14 PM 53.4667 -129.1333 149° Southeast 240 276 19,700 700 Climbing Vancouver Center
Mon 02:03:00 PM 53.3823 -128.9504 128° Southeast  Level FlightAware Approximate
Mon 02:04:14 PM 53.3167 -128.8833 128° Southeast 230 265 21,800  Level Vancouver Center
Mon 02:06:00 PM 53.2296 -128.7006 135° Southeast  Level FlightAware Approximate
Mon 02:06:14 PM 53.2500 -128.7333 135° Southeast 230 265 23,000  Level Vancouver Center
Mon 02:07:14 PM 53.2000 -128.6833 149° Southeast 240 276 23,000  Level Vancouver Center
Mon 02:08:14 PM 53.1333 -128.5833 138° Southeast 250 288 23,000  Level Vancouver Center
Mon 02:10:14 PM 53.0333 -128.4333 138° Southeast 260 299 23,000  Level Vancouver Center
Mon 02:14:14 PM 52.8333 -128.0833 133° Southeast 260 299 23,000  Level Vancouver Center
Mon 02:16:00 PM 52.7382 -127.9185 134° Southeast  Level FlightAware Approximate
Mon 02:19:14 PM 52.5667 -127.7000 137° Southeast 260 299 23,000  Level Vancouver Center
Mon 02:20:14 PM 52.5167 -127.6167 135° Southeast 260 299 23,000  Level Vancouver Center
Mon 02:21:14 PM 52.4667 -127.5333 135° Southeast 260 299 23,000  Level Vancouver Center
Mon 02:22:14 PM 52.4167 -127.4333 129° Southeast 260 299 23,000  Level Vancouver Center
Mon 02:23:00 PM 52.3412 -127.3023 137° Southeast  Level FlightAware Approximate
Mon 02:23:14 PM 52.3500 -127.3500 143° Southeast 260 299 23,000  Level Vancouver Center
Mon 02:24:14 PM 52.3167 -127.3000 137° Southeast 260 299 23,000  Level Vancouver Center
Mon 02:26:14 PM 52.2167 -127.1167 132° Southeast 260 299 23,000  Level Vancouver Center
Mon 02:27:14 PM 52.1500 -127.0333 142° Southeast 260 299 23,000  Level Vancouver Center
Mon 02:28:14 PM 52.1000 -126.9833 148° Southeast 260 299 23,000  Level Vancouver Center
Mon 02:30:00 PM 52.0130 -126.8572 138° Southeast  Level FlightAware Approximate
Mon 02:32:14 PM 51.9000 -126.6667 138° Southeast 260 299 23,000  Level Vancouver Center
Mon 02:33:14 PM 51.8500 -126.5833 134° Southeast 250 288 23,000  Level Vancouver Center
Mon 02:34:14 PM 51.8000 -126.5000 134° Southeast 250 288 23,000  Level Vancouver Center
Mon 02:35:14 PM 51.7333 -126.4167 142° Southeast 250 288 23,000  Level Vancouver Center
Mon 02:37:00 PM 51.6669 -126.3622 138° Southeast  Level FlightAware Approximate
Mon 02:37:14 PM 51.6333 -126.2667 137° Southeast 260 299 23,000  Level Vancouver Center
Mon 02:38:14 PM 51.5833 -126.1833 134° Southeast 260 299 23,000  Level Vancouver Center
Mon 02:40:00 PM 51.4949 -126.0645 140° Southeast  Level FlightAware Approximate
Mon 02:41:14 PM 51.4167 -125.9667 140° Southeast 260 299 23,000  Level Vancouver Center
Mon 02:42:14 PM 51.3667 -125.8833 134° Southeast 260 299 23,000  Level Vancouver Center
Mon 02:44:00 PM 51.2775 -125.7663 141° Southeast  Level FlightAware Approximate
Mon 02:44:14 PM 51.2667 -125.7500 141° Southeast 260 299 23,000  Level Vancouver Center
Mon 02:45:14 PM 51.2167 -125.6667 134° Southeast 250 288 23,000  Level Vancouver Center
Mon 02:46:14 PM 51.1667 -125.5833 134° Southeast 260 299 23,000  Level Vancouver Center
Mon 02:47:14 PM 51.1000 -125.5000 142° Southeast 250 288 23,000  Level Vancouver Center
Mon 02:48:14 PM 51.0500 -125.4500 148° Southeast 250 288 23,000  Level Vancouver Center
Mon 02:50:00 PM 50.9593 -125.3369 142° Southeast  Level FlightAware Approximate
Mon 02:50:14 PM 50.9500 -125.2833 142° Southeast 260 299 23,000  Level Vancouver Center
Mon 02:51:14 PM 50.8833 -125.2000 142° Southeast 250 288 23,000  Level Vancouver Center
Mon 02:52:14 PM 50.8333 -125.1500 148° Southeast 250 288 23,000  Level Vancouver Center
Mon 02:53:14 PM 50.7833 -125.0667 133° Southeast 250 288 23,000  Level Vancouver Center
Mon 02:55:14 PM 50.6833 -124.9000 133° Southeast 250 288 23,000  Level Vancouver Center
Mon 02:57:14 PM 50.5667 -124.7667 144° Southeast 250 288 23,000  Level Vancouver Center
Mon 02:59:00 PM 50.4632 -124.6709 149° Southeast  Level FlightAware Approximate
Mon 02:59:14 PM 50.4667 -124.6333 149° Southeast 250 288 23,000  Level Vancouver Center
Mon 03:01:00 PM 50.3478 -124.5633 136° Southeast  Level FlightAware Approximate
Mon 03:03:14 PM 50.2500 -124.3500 141° Southeast 250 288 21,000  Level Vancouver Center
Mon 03:04:14 PM 50.2000 -124.2667 133° Southeast 250 288 19,900 -1,050 Descending Vancouver Center
Mon 03:05:14 PM 50.1500 -124.1833 133° Southeast 260 299 18,900 -1,000 Descending Vancouver Center
Mon 03:06:14 PM 50.0833 -124.1333 154° Southeast 250 288 17,900 -950 Descending Vancouver Center
Mon 03:08:00 PM 49.9819 -124.0890 140° Southeast  Level FlightAware Approximate
Mon 03:08:00 PM 49.9805 -124.0370 149° Southeast  Level FlightAware Approximate
Mon 03:09:00 PM 49.9294 -124.0220 141° Southeast  Level FlightAware Approximate
Mon 03:09:14 PM 49.9500 -123.9333 149° Southeast 220 253 15,100  Level Vancouver Center
Mon 03:10:14 PM 49.9000 -123.8833 147° Southeast 210 242 14,200 -800 Descending Vancouver Center
Mon 03:11:14 PM 49.8667 -123.8167 128° Southeast 210 242 13,500 -767 Descending Vancouver Center
Mon 03:13:14 PM 49.7667 -123.7167 147° Southeast 200 230 11,900 -800 Descending Vancouver Center
Mon 03:14:14 PM 49.7333 -123.6667 136° Southeast 190 219 11,100 -633 Descending Vancouver Center
Mon 03:16:00 PM 49.6297 -123.5731 147° Southeast  Level Estimated
Mon 03:16:14 PM 49.6000 -123.5667 147° Southeast 270 311 10,000  Level Vancouver Center
Mon 03:18:00 PM 49.4995 -123.4661 147° Southeast  Level FlightAware Approximate
Mon 03:19:14 PM 49.4000 -123.4167 147° Southeast 270 311 10,000  Level Vancouver Center
Mon 03:20:14 PM 49.3333 -123.3667 154° Southeast 270 311 10,000  Level Vancouver Center
Mon 03:21:14 PM 49.2833 -123.3167 147° Southeast 270 311 10,000 -300 Level Vancouver Center
Mon 03:22:14 PM 49.2500 -123.2167 117° Southeast 260 299 9,400 -900 Descending Vancouver Center
Mon 03:23:14 PM 49.2500 -123.1167 90° East 250 288 8,200 -1,533 Descending Vancouver Center
Mon 03:25:14 PM 49.1833 -122.9500 121° Southeast 230 265 4,800 -1,620 Descending Vancouver Center
Mon 03:28:14 PM 49.1833 -123.1667 270° West 130 150 100 -1,567 Descending Vancouver Center

Login

Don't have an account? Register now (free) for customized features, flight alerts, and more!